sensor_id;sensor_type;location;lat;lon;timestamp;temperature;humidity
5520;DHT22;2782;52.362;10.012;2023-02-28T00:00:56;18.40;56.20
5520;DHT22;2782;52.362;10.012;2023-02-28T00:01:57;18.40;56.20
5520;DHT22;2782;52.362;10.012;2023-02-28T00:02:58;18.40;56.20
5520;DHT22;2782;52.362;10.012;2023-02-28T00:04:00;18.40;56.20
5520;DHT22;2782;52.362;10.012;2023-02-28T00:05:01;18.40;56.20
5520;DHT22;2782;52.362;10.012;2023-02-28T00:06:06;18.40;56.10
5520;DHT22;2782;52.362;10.012;2023-02-28T00:07:07;18.40;56.20
5520;DHT22;2782;52.362;10.012;2023-02-28T00:08:09;18.40;56.20
5520;DHT22;2782;52.362;10.012;2023-02-28T00:09:09;18.40;56.20
5520;DHT22;2782;52.362;10.012;2023-02-28T00:10:16;18.30;56.10
5520;DHT22;2782;52.362;10.012;2023-02-28T00:11:20;18.30;56.10
5520;DHT22;2782;52.362;10.012;2023-02-28T00:12:22;18.30;56.10
5520;DHT22;2782;52.362;10.012;2023-02-28T00:13:23;18.30;56.10
5520;DHT22;2782;52.362;10.012;2023-02-28T00:14:24;18.30;56.10
5520;DHT22;2782;52.362;10.012;2023-02-28T00:15:25;18.30;56.10
5520;DHT22;2782;52.362;10.012;2023-02-28T00:16:27;18.30;56.00
5520;DHT22;2782;52.362;10.012;2023-02-28T00:17:27;18.30;56.10
5520;DHT22;2782;52.362;10.012;2023-02-28T00:18:29;18.30;56.10
5520;DHT22;2782;52.362;10.012;2023-02-28T00:19:30;18.30;56.10
5520;DHT22;2782;52.362;10.012;2023-02-28T00:20:31;18.30;56.10
5520;DHT22;2782;52.362;10.012;2023-02-28T00:21:33;18.20;56.00
5520;DHT22;2782;52.362;10.012;2023-02-28T00:22:36;18.30;56.10
5520;DHT22;2782;52.362;10.012;2023-02-28T00:23:37;18.20;56.00
5520;DHT22;2782;52.362;10.012;2023-02-28T00:24:38;18.20;56.00
5520;DHT22;2782;52.362;10.012;2023-02-28T00:25:39;18.30;56.10
5520;DHT22;2782;52.362;10.012;2023-02-28T00:26:41;18.20;56.00
5520;DHT22;2782;52.362;10.012;2023-02-28T00:27:42;18.20;56.00
5520;DHT22;2782;52.362;10.012;2023-02-28T00:28:44;18.30;56.10
5520;DHT22;2782;52.362;10.012;2023-02-28T00:29:46;18.20;56.00
5520;DHT22;2782;52.362;10.012;2023-02-28T00:30:47;18.20;56.00
5520;DHT22;2782;52.362;10.012;2023-02-28T00:31:49;18.20;55.90
5520;DHT22;2782;52.362;10.012;2023-02-28T00:32:50;18.20;55.90
5520;DHT22;2782;52.362;10.012;2023-02-28T00:33:51;18.20;55.90
5520;DHT22;2782;52.362;10.012;2023-02-28T00:34:52;18.20;55.90
5520;DHT22;2782;52.362;10.012;2023-02-28T00:36:03;18.20;55.90
5520;DHT22;2782;52.362;10.012;2023-02-28T00:37:06;18.20;56.00
5520;DHT22;2782;52.362;10.012;2023-02-28T00:38:08;18.10;55.90
5520;DHT22;2782;52.362;10.012;2023-02-28T00:39:09;18.20;56.00
5520;DHT22;2782;52.362;10.012;2023-02-28T00:40:11;18.10;56.00
5520;DHT22;2782;52.362;10.012;2023-02-28T00:41:12;18.20;56.00
5520;DHT22;2782;52.362;10.012;2023-02-28T00:42:13;18.10;55.90
5520;DHT22;2782;52.362;10.012;2023-02-28T00:43:14;18.10;55.90
5520;DHT22;2782;52.362;10.012;2023-02-28T00:44:16;18.10;55.90
5520;DHT22;2782;52.362;10.012;2023-02-28T00:45:17;18.10;55.80
5520;DHT22;2782;52.362;10.012;2023-02-28T00:46:19;18.10;55.90
5520;DHT22;2782;52.362;10.012;2023-02-28T00:47:20;18.10;55.90
5520;DHT22;2782;52.362;10.012;2023-02-28T00:48:21;18.10;55.90
5520;DHT22;2782;52.362;10.012;2023-02-28T00:49:22;18.10;55.90
5520;DHT22;2782;52.362;10.012;2023-02-28T00:50:24;18.10;55.80
5520;DHT22;2782;52.362;10.012;2023-02-28T00:51:25;18.10;55.80
5520;DHT22;2782;52.362;10.012;2023-02-28T00:52:28;18.10;55.80
5520;DHT22;2782;52.362;10.012;2023-02-28T00:53:29;18.10;55.80
5520;DHT22;2782;52.362;10.012;2023-02-28T00:54:32;18.10;55.80
5520;DHT22;2782;52.362;10.012;2023-02-28T00:55:33;18.00;55.70
5520;DHT22;2782;52.362;10.012;2023-02-28T00:56:35;18.00;55.70
5520;DHT22;2782;52.362;10.012;2023-02-28T00:57:35;18.00;55.70
5520;DHT22;2782;52.362;10.012;2023-02-28T00:58:37;18.00;55.70
5520;DHT22;2782;52.362;10.012;2023-02-28T00:59:38;18.00;55.70
5520;DHT22;2782;52.362;10.012;2023-02-28T01:00:39;18.00;55.70
5520;DHT22;2782;52.362;10.012;2023-02-28T01:01:40;18.00;55.70
5520;DHT22;2782;52.362;10.012;2023-02-28T01:02:42;18.00;55.60
5520;DHT22;2782;52.362;10.012;2023-02-28T01:03:42;18.00;55.70
5520;DHT22;2782;52.362;10.012;2023-02-28T01:04:44;18.00;55.70
5520;DHT22;2782;52.362;10.012;2023-02-28T01:05:45;18.00;55.70
5520;DHT22;2782;52.362;10.012;2023-02-28T01:06:47;18.00;55.60
5520;DHT22;2782;52.362;10.012;2023-02-28T01:07:49;18.00;55.60
5520;DHT22;2782;52.362;10.012;2023-02-28T01:08:51;18.00;55.60
5520;DHT22;2782;52.362;10.012;2023-02-28T01:09:51;17.90;55.60
5520;DHT22;2782;52.362;10.012;2023-02-28T01:10:53;18.00;55.70
5520;DHT22;2782;52.362;10.012;2023-02-28T01:11:54;17.90;55.60
5520;DHT22;2782;52.362;10.012;2023-02-28T01:12:56;18.00;55.60
5520;DHT22;2782;52.362;10.012;2023-02-28T01:13:56;17.90;55.50
5520;DHT22;2782;52.362;10.012;2023-02-28T01:14:58;17.90;55.50
5520;DHT22;2782;52.362;10.012;2023-02-28T01:15:59;17.90;55.50
5520;DHT22;2782;52.362;10.012;2023-02-28T01:17:00;17.90;55.60
5520;DHT22;2782;52.362;10.012;2023-02-28T01:18:01;17.90;55.70
5520;DHT22;2782;52.362;10.012;2023-02-28T01:19:03;17.90;55.70
5520;DHT22;2782;52.362;10.012;2023-02-28T01:20:04;17.90;55.70
5520;DHT22;2782;52.362;10.012;2023-02-28T01:21:07;17.90;55.70
5520;DHT22;2782;52.362;10.012;2023-02-28T01:22:08;17.90;55.70
5520;DHT22;2782;52.362;10.012;2023-02-28T01:23:11;17.90;55.70
5520;DHT22;2782;52.362;10.012;2023-02-28T01:24:11;17.80;55.60
5520;DHT22;2782;52.362;10.012;2023-02-28T01:25:13;17.80;55.60
5520;DHT22;2782;52.362;10.012;2023-02-28T01:26:15;17.90;55.70
5520;DHT22;2782;52.362;10.012;2023-02-28T01:27:17;17.90;55.70
5520;DHT22;2782;52.362;10.012;2023-02-28T01:28:18;17.90;55.70
5520;DHT22;2782;52.362;10.012;2023-02-28T01:29:19;17.80;55.60
5520;DHT22;2782;52.362;10.012;2023-02-28T01:30:20;17.80;55.60
5520;DHT22;2782;52.362;10.012;2023-02-28T01:31:22;17.80;55.60
5520;DHT22;2782;52.362;10.012;2023-02-28T01:32:23;17.80;55.60
5520;DHT22;2782;52.362;10.012;2023-02-28T01:33:25;17.80;55.70
5520;DHT22;2782;52.362;10.012;2023-02-28T01:34:26;17.80;55.70
5520;DHT22;2782;52.362;10.012;2023-02-28T01:35:27;17.80;55.60
5520;DHT22;2782;52.362;10.012;2023-02-28T01:36:29;17.80;55.60
5520;DHT22;2782;52.362;10.012;2023-02-28T01:37:30;17.80;55.60
5520;DHT22;2782;52.362;10.012;2023-02-28T01:38:33;17.80;55.60
5520;DHT22;2782;52.362;10.012;2023-02-28T01:39:34;17.80;55.70
5520;DHT22;2782;52.362;10.012;2023-02-28T01:40:35;17.80;55.70
5520;DHT22;2782;52.362;10.012;2023-02-28T01:41:36;17.80;55.60
5520;DHT22;2782;52.362;10.012;2023-02-28T01:42:38;17.80;55.60
5520;DHT22;2782;52.362;10.012;2023-02-28T01:43:54;17.70;55.50
5520;DHT22;2782;52.362;10.012;2023-02-28T01:45:02;17.70;55.50
5520;DHT22;2782;52.362;10.012;2023-02-28T01:46:04;17.70;55.50
5520;DHT22;2782;52.362;10.012;2023-02-28T01:47:04;17.70;55.60
5520;DHT22;2782;52.362;10.012;2023-02-28T01:48:07;17.70;55.70
5520;DHT22;2782;52.362;10.012;2023-02-28T01:49:12;17.70;55.70
5520;DHT22;2782;52.362;10.012;2023-02-28T01:50:17;17.70;55.70
5520;DHT22;2782;52.362;10.012;2023-02-28T01:51:22;17.70;55.60
5520;DHT22;2782;52.362;10.012;2023-02-28T01:52:25;17.70;55.60
5520;DHT22;2782;52.362;10.012;2023-02-28T01:53:31;17.70;55.60
5520;DHT22;2782;52.362;10.012;2023-02-28T01:54:35;17.70;56.20
5520;DHT22;2782;52.362;10.012;2023-02-28T01:55:36;17.70;55.40
5520;DHT22;2782;52.362;10.012;2023-02-28T01:56:38;17.70;55.60
5520;DHT22;2782;52.362;10.012;2023-02-28T01:57:42;17.60;55.50
5520;DHT22;2782;52.362;10.012;2023-02-28T01:58:44;17.60;55.50
5520;DHT22;2782;52.362;10.012;2023-02-28T01:59:49;17.70;55.50
5520;DHT22;2782;52.362;10.012;2023-02-28T02:00:52;17.70;55.60
5520;DHT22;2782;52.362;10.012;2023-02-28T02:01:53;17.70;55.50
5520;DHT22;2782;52.362;10.012;2023-02-28T02:02:58;17.60;55.50
5520;DHT22;2782;52.362;10.012;2023-02-28T02:04:02;17.60;55.40
5520;DHT22;2782;52.362;10.012;2023-02-28T02:05:07;17.60;55.40
5520;DHT22;2782;52.362;10.012;2023-02-28T02:06:08;17.60;55.50
5520;DHT22;2782;52.362;10.012;2023-02-28T02:07:11;17.60;55.40
5520;DHT22;2782;52.362;10.012;2023-02-28T02:08:15;17.60;55.50
5520;DHT22;2782;52.362;10.012;2023-02-28T02:09:17;17.60;55.50
5520;DHT22;2782;52.362;10.012;2023-02-28T02:10:21;17.60;55.50
5520;DHT22;2782;52.362;10.012;2023-02-28T02:11:26;17.60;55.50
5520;DHT22;2782;52.362;10.012;2023-02-28T02:12:57;17.50;55.30
5520;DHT22;2782;52.362;10.012;2023-02-28T02:15:43;17.60;55.50
5520;DHT22;2782;52.362;10.012;2023-02-28T02:16:58;17.50;55.40
5520;DHT22;2782;52.362;10.012;2023-02-28T02:18:10;17.50;55.40
5520;DHT22;2782;52.362;10.012;2023-02-28T02:19:29;17.50;55.40
5520;DHT22;2782;52.362;10.012;2023-02-28T02:21:01;17.50;55.40
5520;DHT22;2782;52.362;10.012;2023-02-28T02:22:39;17.50;55.40
5520;DHT22;2782;52.362;10.012;2023-02-28T02:24:22;17.40;55.40
5520;DHT22;2782;52.362;10.012;2023-02-28T02:25:33;17.50;55.50
5520;DHT22;2782;52.362;10.012;2023-02-28T02:27:17;17.40;55.40
5520;DHT22;2782;52.362;10.012;2023-02-28T02:28:42;17.40;55.50
5520;DHT22;2782;52.362;10.012;2023-02-28T02:31:52;17.40;55.50
5520;DHT22;2782;52.362;10.012;2023-02-28T02:33:11;17.40;55.60
5520;DHT22;2782;52.362;10.012;2023-02-28T02:34:53;17.30;55.50
5520;DHT22;2782;52.362;10.012;2023-02-28T02:35:59;17.30;55.50
5520;DHT22;2782;52.362;10.012;2023-02-28T02:37:10;17.30;55.50
5520;DHT22;2782;52.362;10.012;2023-02-28T02:38:19;17.30;55.60
5520;DHT22;2782;52.362;10.012;2023-02-28T02:39:29;17.30;55.50
5520;DHT22;2782;52.362;10.012;2023-02-28T02:40:37;17.30;55.50
5520;DHT22;2782;52.362;10.012;2023-02-28T02:41:41;17.30;55.50
5520;DHT22;2782;52.362;10.012;2023-02-28T02:42:51;17.30;55.50
5520;DHT22;2782;52.362;10.012;2023-02-28T02:43:54;17.30;55.50
5520;DHT22;2782;52.362;10.012;2023-02-28T02:45:00;17.30;55.40
5520;DHT22;2782;52.362;10.012;2023-02-28T02:46:05;17.30;55.40
5520;DHT22;2782;52.362;10.012;2023-02-28T02:47:13;17.30;55.40
5520;DHT22;2782;52.362;10.012;2023-02-28T02:48:19;17.30;55.40
5520;DHT22;2782;52.362;10.012;2023-02-28T02:49:23;17.30;55.40
5520;DHT22;2782;52.362;10.012;2023-02-28T02:50:29;17.30;55.40
5520;DHT22;2782;52.362;10.012;2023-02-28T02:51:33;17.30;55.40
5520;DHT22;2782;52.362;10.012;2023-02-28T02:52:38;17.30;55.30
5520;DHT22;2782;52.362;10.012;2023-02-28T02:53:42;17.30;55.40
5520;DHT22;2782;52.362;10.012;2023-02-28T02:54:46;17.30;55.30
5520;DHT22;2782;52.362;10.012;2023-02-28T02:55:51;17.30;55.40
5520;DHT22;2782;52.362;10.012;2023-02-28T02:56:56;17.30;55.40
5520;DHT22;2782;52.362;10.012;2023-02-28T02:58:00;17.30;55.30
5520;DHT22;2782;52.362;10.012;2023-02-28T02:59:04;17.30;55.30
5520;DHT22;2782;52.362;10.012;2023-02-28T03:00:09;17.30;55.30
5520;DHT22;2782;52.362;10.012;2023-02-28T03:04:32;17.30;55.40
5520;DHT22;2782;52.362;10.012;2023-02-28T03:05:41;17.20;55.40
5520;DHT22;2782;52.362;10.012;2023-02-28T03:06:42;17.20;55.40
5520;DHT22;2782;52.362;10.012;2023-02-28T03:07:44;17.20;55.50
5520;DHT22;2782;52.362;10.012;2023-02-28T03:08:45;17.20;55.40
5520;DHT22;2782;52.362;10.012;2023-02-28T03:09:51;17.20;55.30
5520;DHT22;2782;52.362;10.012;2023-02-28T03:10:56;17.20;55.40
5520;DHT22;2782;52.362;10.012;2023-02-28T03:11:58;17.20;55.40
5520;DHT22;2782;52.362;10.012;2023-02-28T03:13:12;17.20;55.30
5520;DHT22;2782;52.362;10.012;2023-02-28T03:14:25;17.20;55.30
5520;DHT22;2782;52.362;10.012;2023-02-28T03:15:33;17.20;55.30
5520;DHT22;2782;52.362;10.012;2023-02-28T03:16:59;17.20;55.30
5520;DHT22;2782;52.362;10.012;2023-02-28T03:18:07;17.20;55.30
5520;DHT22;2782;52.362;10.012;2023-02-28T03:19:29;17.20;55.30
5520;DHT22;2782;52.362;10.012;2023-02-28T03:20:40;17.10;55.20
5520;DHT22;2782;52.362;10.012;2023-02-28T03:21:45;17.10;55.30
5520;DHT22;2782;52.362;10.012;2023-02-28T03:22:52;17.20;55.30
5520;DHT22;2782;52.362;10.012;2023-02-28T03:24:03;17.20;55.40
5520;DHT22;2782;52.362;10.012;2023-02-28T03:25:08;17.20;55.40
5520;DHT22;2782;52.362;10.012;2023-02-28T03:26:16;17.10;55.30
5520;DHT22;2782;52.362;10.012;2023-02-28T03:27:23;17.10;55.90
5520;DHT22;2782;52.362;10.012;2023-02-28T03:28:31;17.10;55.30
5520;DHT22;2782;52.362;10.012;2023-02-28T03:29:39;17.20;55.30
5520;DHT22;2782;52.362;10.012;2023-02-28T03:30:44;17.20;55.30
5520;DHT22;2782;52.362;10.012;2023-02-28T03:31:50;17.20;55.30
5520;DHT22;2782;52.362;10.012;2023-02-28T03:32:56;17.10;55.10
5520;DHT22;2782;52.362;10.012;2023-02-28T03:34:03;17.20;55.20
5520;DHT22;2782;52.362;10.012;2023-02-28T03:35:08;17.10;55.20
5520;DHT22;2782;52.362;10.012;2023-02-28T03:36:16;17.10;55.10
5520;DHT22;2782;52.362;10.012;2023-02-28T03:37:20;17.20;55.30
5520;DHT22;2782;52.362;10.012;2023-02-28T03:38:28;17.10;55.10
5520;DHT22;2782;52.362;10.012;2023-02-28T03:39:35;17.10;55.10
5520;DHT22;2782;52.362;10.012;2023-02-28T03:40:39;17.10;55.10
5520;DHT22;2782;52.362;10.012;2023-02-28T03:41:44;17.10;55.10
5520;DHT22;2782;52.362;10.012;2023-02-28T03:42:51;17.20;55.20
5520;DHT22;2782;52.362;10.012;2023-02-28T03:43:55;17.10;55.10
5520;DHT22;2782;52.362;10.012;2023-02-28T03:44:59;17.20;55.10
5520;DHT22;2782;52.362;10.012;2023-02-28T03:46:05;17.10;55.10
5520;DHT22;2782;52.362;10.012;2023-02-28T03:47:10;17.10;55.10
5520;DHT22;2782;52.362;10.012;2023-02-28T03:48:15;17.20;55.10
5520;DHT22;2782;52.362;10.012;2023-02-28T03:49:23;17.20;55.10
5520;DHT22;2782;52.362;10.012;2023-02-28T03:50:27;17.10;55.00
5520;DHT22;2782;52.362;10.012;2023-02-28T03:51:34;17.10;55.00
5520;DHT22;2782;52.362;10.012;2023-02-28T03:52:38;17.10;55.60
5520;DHT22;2782;52.362;10.012;2023-02-28T03:53:47;17.10;55.00
5520;DHT22;2782;52.362;10.012;2023-02-28T03:54:52;17.10;55.00
5520;DHT22;2782;52.362;10.012;2023-02-28T03:55:59;17.10;55.10
5520;DHT22;2782;52.362;10.012;2023-02-28T03:57:05;17.10;55.00
5520;DHT22;2782;52.362;10.012;2023-02-28T03:58:14;17.10;55.00
5520;DHT22;2782;52.362;10.012;2023-02-28T03:59:18;17.10;55.00
5520;DHT22;2782;52.362;10.012;2023-02-28T04:00:27;17.10;55.00
5520;DHT22;2782;52.362;10.012;2023-02-28T04:01:33;17.10;55.00
5520;DHT22;2782;52.362;10.012;2023-02-28T04:02:35;17.10;55.30
5520;DHT22;2782;52.362;10.012;2023-02-28T04:03:36;17.10;55.00
5520;DHT22;2782;52.362;10.012;2023-02-28T04:04:38;17.10;55.00
5520;DHT22;2782;52.362;10.012;2023-02-28T04:05:50;17.10;55.00
5520;DHT22;2782;52.362;10.012;2023-02-28T04:06:53;17.10;55.00
5520;DHT22;2782;52.362;10.012;2023-02-28T04:08:05;17.10;55.00
5520;DHT22;2782;52.362;10.012;2023-02-28T04:09:07;17.00;54.90
5520;DHT22;2782;52.362;10.012;2023-02-28T04:10:11;17.00;54.80
5520;DHT22;2782;52.362;10.012;2023-02-28T04:11:22;17.00;54.90
5520;DHT22;2782;52.362;10.012;2023-02-28T04:12:24;17.00;54.90
5520;DHT22;2782;52.362;10.012;2023-02-28T04:13:25;17.00;54.90
5520;DHT22;2782;52.362;10.012;2023-02-28T04:14:26;17.00;55.00
5520;DHT22;2782;52.362;10.012;2023-02-28T04:15:27;17.00;54.90
5520;DHT22;2782;52.362;10.012;2023-02-28T04:16:29;17.00;54.90
5520;DHT22;2782;52.362;10.012;2023-02-28T04:17:29;17.00;54.90
5520;DHT22;2782;52.362;10.012;2023-02-28T04:18:31;17.00;54.90
5520;DHT22;2782;52.362;10.012;2023-02-28T04:19:32;17.00;54.90
5520;DHT22;2782;52.362;10.012;2023-02-28T04:20:33;17.00;54.90
5520;DHT22;2782;52.362;10.012;2023-02-28T04:21:35;17.00;54.90
5520;DHT22;2782;52.362;10.012;2023-02-28T04:22:40;17.00;54.80
5520;DHT22;2782;52.362;10.012;2023-02-28T04:23:41;17.00;54.90
5520;DHT22;2782;52.362;10.012;2023-02-28T04:24:42;17.00;54.90
5520;DHT22;2782;52.362;10.012;2023-02-28T04:25:43;17.00;54.90
5520;DHT22;2782;52.362;10.012;2023-02-28T04:26:46;17.00;54.80
5520;DHT22;2782;52.362;10.012;2023-02-28T04:27:47;17.00;54.90
5520;DHT22;2782;52.362;10.012;2023-02-28T04:28:49;17.00;54.90
5520;DHT22;2782;52.362;10.012;2023-02-28T04:29:49;17.00;54.90
5520;DHT22;2782;52.362;10.012;2023-02-28T04:30:54;17.00;54.90
5520;DHT22;2782;52.362;10.012;2023-02-28T04:31:56;17.00;54.90
5520;DHT22;2782;52.362;10.012;2023-02-28T04:33:00;17.00;54.90
5520;DHT22;2782;52.362;10.012;2023-02-28T04:34:01;17.00;54.90
5520;DHT22;2782;52.362;10.012;2023-02-28T04:35:03;17.00;54.90
5520;DHT22;2782;52.362;10.012;2023-02-28T04:36:05;17.00;54.90
5520;DHT22;2782;52.362;10.012;2023-02-28T04:37:07;17.00;54.90
5520;DHT22;2782;52.362;10.012;2023-02-28T04:38:10;17.00;54.90
5520;DHT22;2782;52.362;10.012;2023-02-28T04:39:11;17.00;54.80
5520;DHT22;2782;52.362;10.012;2023-02-28T04:40:12;17.00;54.80
5520;DHT22;2782;52.362;10.012;2023-02-28T04:41:13;17.00;55.10
5520;DHT22;2782;52.362;10.012;2023-02-28T04:42:15;17.00;54.80
5520;DHT22;2782;52.362;10.012;2023-02-28T04:43:15;17.00;54.80
5520;DHT22;2782;52.362;10.012;2023-02-28T04:44:17;17.00;54.80
5520;DHT22;2782;52.362;10.012;2023-02-28T04:45:18;17.00;54.80
5520;DHT22;2782;52.362;10.012;2023-02-28T04:46:19;17.00;54.90
5520;DHT22;2782;52.362;10.012;2023-02-28T04:47:21;17.00;54.80
5520;DHT22;2782;52.362;10.012;2023-02-28T04:48:23;17.00;54.90
5520;DHT22;2782;52.362;10.012;2023-02-28T04:49:24;17.00;54.80
5520;DHT22;2782;52.362;10.012;2023-02-28T04:50:25;17.00;54.80
5520;DHT22;2782;52.362;10.012;2023-02-28T04:51:26;17.00;54.80
5520;DHT22;2782;52.362;10.012;2023-02-28T04:52:28;17.00;54.80
5520;DHT22;2782;52.362;10.012;2023-02-28T04:53:30;17.00;54.80
5520;DHT22;2782;52.362;10.012;2023-02-28T04:54:32;17.00;54.80
5520;DHT22;2782;52.362;10.012;2023-02-28T04:55:33;17.00;54.80
5520;DHT22;2782;52.362;10.012;2023-02-28T04:56:34;17.00;54.80
5520;DHT22;2782;52.362;10.012;2023-02-28T04:57:35;17.00;54.90
5520;DHT22;2782;52.362;10.012;2023-02-28T04:58:37;17.00;54.80
5520;DHT22;2782;52.362;10.012;2023-02-28T04:59:39;17.00;54.90
5520;DHT22;2782;52.362;10.012;2023-02-28T05:00:40;17.00;55.00
5520;DHT22;2782;52.362;10.012;2023-02-28T05:01:45;17.00;54.90
5520;DHT22;2782;52.362;10.012;2023-02-28T05:02:50;17.00;54.90
5520;DHT22;2782;52.362;10.012;2023-02-28T05:03:54;17.00;55.00
5520;DHT22;2782;52.362;10.012;2023-02-28T05:04:55;17.00;55.00
5520;DHT22;2782;52.362;10.012;2023-02-28T05:05:57;17.00;54.90
5520;DHT22;2782;52.362;10.012;2023-02-28T05:06:57;17.00;54.90
5520;DHT22;2782;52.362;10.012;2023-02-28T05:07:59;17.00;54.90
5520;DHT22;2782;52.362;10.012;2023-02-28T05:09:01;17.00;54.90
5520;DHT22;2782;52.362;10.012;2023-02-28T05:10:03;17.00;55.00
5520;DHT22;2782;52.362;10.012;2023-02-28T05:11:06;17.00;54.90
5520;DHT22;2782;52.362;10.012;2023-02-28T05:12:09;17.00;54.90
5520;DHT22;2782;52.362;10.012;2023-02-28T05:13:11;17.00;55.00
5520;DHT22;2782;52.362;10.012;2023-02-28T05:14:13;17.00;55.00
5520;DHT22;2782;52.362;10.012;2023-02-28T05:15:15;17.00;55.00
5520;DHT22;2782;52.362;10.012;2023-02-28T05:16:17;17.00;55.00
5520;DHT22;2782;52.362;10.012;2023-02-28T05:17:18;17.00;55.00
5520;DHT22;2782;52.362;10.012;2023-02-28T05:18:20;17.00;55.00
5520;DHT22;2782;52.362;10.012;2023-02-28T05:19:20;17.00;55.00
5520;DHT22;2782;52.362;10.012;2023-02-28T05:20:22;17.00;54.50
5520;DHT22;2782;52.362;10.012;2023-02-28T05:21:27;17.00;55.00
5520;DHT22;2782;52.362;10.012;2023-02-28T05:22:28;17.00;53.90
5520;DHT22;2782;52.362;10.012;2023-02-28T05:23:29;17.00;53.80
5520;DHT22;2782;52.362;10.012;2023-02-28T05:24:32;17.00;54.10
5520;DHT22;2782;52.362;10.012;2023-02-28T05:25:34;17.00;54.20
5520;DHT22;2782;52.362;10.012;2023-02-28T05:26:35;17.00;54.40
5520;DHT22;2782;52.362;10.012;2023-02-28T05:27:37;17.00;54.40
5520;DHT22;2782;52.362;10.012;2023-02-28T05:28:37;17.00;54.50
5520;DHT22;2782;52.362;10.012;2023-02-28T05:29:39;17.00;54.60
5520;DHT22;2782;52.362;10.012;2023-02-28T05:30:43;17.00;54.70
5520;DHT22;2782;52.362;10.012;2023-02-28T05:31:44;17.00;54.70
5520;DHT22;2782;52.362;10.012;2023-02-28T05:32:50;17.00;54.70
5520;DHT22;2782;52.362;10.012;2023-02-28T05:33:51;17.00;54.80
5520;DHT22;2782;52.362;10.012;2023-02-28T05:34:53;17.00;54.90
5520;DHT22;2782;52.362;10.012;2023-02-28T05:35:53;17.00;55.10
5520;DHT22;2782;52.362;10.012;2023-02-28T05:36:55;17.00;55.10
5520;DHT22;2782;52.362;10.012;2023-02-28T05:37:55;17.00;55.20
5520;DHT22;2782;52.362;10.012;2023-02-28T05:38:57;17.00;55.20
5520;DHT22;2782;52.362;10.012;2023-02-28T05:39:59;17.00;55.30
5520;DHT22;2782;52.362;10.012;2023-02-28T05:41:05;17.00;55.30
5520;DHT22;2782;52.362;10.012;2023-02-28T05:42:06;17.10;55.40
5520;DHT22;2782;52.362;10.012;2023-02-28T05:43:10;17.10;55.40
5520;DHT22;2782;52.362;10.012;2023-02-28T05:44:12;17.10;55.50
5520;DHT22;2782;52.362;10.012;2023-02-28T05:45:13;17.10;55.50
5520;DHT22;2782;52.362;10.012;2023-02-28T05:46:15;17.20;55.60
5520;DHT22;2782;52.362;10.012;2023-02-28T05:47:16;17.10;55.60
5520;DHT22;2782;52.362;10.012;2023-02-28T05:48:17;17.10;55.90
5520;DHT22;2782;52.362;10.012;2023-02-28T05:49:19;17.20;56.10
5520;DHT22;2782;52.362;10.012;2023-02-28T05:50:21;17.20;56.30
5520;DHT22;2782;52.362;10.012;2023-02-28T05:51:21;17.20;56.60
5520;DHT22;2782;52.362;10.012;2023-02-28T05:52:23;17.20;57.00
5520;DHT22;2782;52.362;10.012;2023-02-28T05:53:24;17.20;57.10
5520;DHT22;2782;52.362;10.012;2023-02-28T05:54:26;17.20;57.30
5520;DHT22;2782;52.362;10.012;2023-02-28T05:55:28;17.20;57.40
5520;DHT22;2782;52.362;10.012;2023-02-28T05:56:30;17.20;57.50
5520;DHT22;2782;52.362;10.012;2023-02-28T05:57:30;17.30;57.90
5520;DHT22;2782;52.362;10.012;2023-02-28T05:58:32;17.20;57.70
5520;DHT22;2782;52.362;10.012;2023-02-28T05:59:35;17.30;58.10
5520;DHT22;2782;52.362;10.012;2023-02-28T06:00:40;17.30;58.60
5520;DHT22;2782;52.362;10.012;2023-02-28T06:01:42;17.30;58.90
5520;DHT22;2782;52.362;10.012;2023-02-28T06:02:48;17.30;58.90
5520;DHT22;2782;52.362;10.012;2023-02-28T06:03:49;17.30;59.20
5520;DHT22;2782;52.362;10.012;2023-02-28T06:04:50;17.30;59.10
5520;DHT22;2782;52.362;10.012;2023-02-28T06:05:52;17.30;59.20
5520;DHT22;2782;52.362;10.012;2023-02-28T06:06:53;17.30;59.30
5520;DHT22;2782;52.362;10.012;2023-02-28T06:07:57;17.40;59.40
5520;DHT22;2782;52.362;10.012;2023-02-28T06:08:58;17.40;59.60
5520;DHT22;2782;52.362;10.012;2023-02-28T06:10:00;17.40;60.30
5520;DHT22;2782;52.362;10.012;2023-02-28T06:11:04;17.40;59.80
5520;DHT22;2782;52.362;10.012;2023-02-28T06:12:07;17.40;59.90
5520;DHT22;2782;52.362;10.012;2023-02-28T06:13:11;17.50;60.80
5520;DHT22;2782;52.362;10.012;2023-02-28T06:14:15;17.50;60.00
5520;DHT22;2782;52.362;10.012;2023-02-28T06:15:16;17.40;60.00
5520;DHT22;2782;52.362;10.012;2023-02-28T06:16:18;17.50;60.10
5520;DHT22;2782;52.362;10.012;2023-02-28T06:17:18;17.40;60.00
5520;DHT22;2782;52.362;10.012;2023-02-28T06:18:20;17.50;60.30
5520;DHT22;2782;52.362;10.012;2023-02-28T06:19:21;17.40;60.30
5520;DHT22;2782;52.362;10.012;2023-02-28T06:20:26;17.50;60.30
5520;DHT22;2782;52.362;10.012;2023-02-28T06:21:29;17.40;60.50
5520;DHT22;2782;52.362;10.012;2023-02-28T06:22:31;17.40;59.70
5520;DHT22;2782;52.362;10.012;2023-02-28T06:23:32;17.40;58.10
5520;DHT22;2782;52.362;10.012;2023-02-28T06:24:33;17.40;59.20
5520;DHT22;2782;52.362;10.012;2023-02-28T06:25:34;17.40;59.00
5520;DHT22;2782;52.362;10.012;2023-02-28T06:26:37;17.40;58.90
5520;DHT22;2782;52.362;10.012;2023-02-28T06:27:38;17.40;58.10
5520;DHT22;2782;52.362;10.012;2023-02-28T06:28:40;17.40;57.80
5520;DHT22;2782;52.362;10.012;2023-02-28T06:29:40;17.40;57.90
5520;DHT22;2782;52.362;10.012;2023-02-28T06:30:42;17.30;57.80
5520;DHT22;2782;52.362;10.012;2023-02-28T06:31:43;17.30;57.80
5520;DHT22;2782;52.362;10.012;2023-02-28T06:32:45;17.30;58.30
5520;DHT22;2782;52.362;10.012;2023-02-28T06:33:46;17.30;57.90
5520;DHT22;2782;52.362;10.012;2023-02-28T06:34:48;17.30;58.30
5520;DHT22;2782;52.362;10.012;2023-02-28T06:35:50;17.30;58.80
5520;DHT22;2782;52.362;10.012;2023-02-28T06:36:52;17.30;59.00
5520;DHT22;2782;52.362;10.012;2023-02-28T06:37:54;17.30;58.70
5520;DHT22;2782;52.362;10.012;2023-02-28T06:38:55;17.30;58.40
5520;DHT22;2782;52.362;10.012;2023-02-28T06:39:58;17.30;58.40
5520;DHT22;2782;52.362;10.012;2023-02-28T06:41:00;17.30;58.70
5520;DHT22;2782;52.362;10.012;2023-02-28T06:42:03;17.30;58.80
5520;DHT22;2782;52.362;10.012;2023-02-28T06:43:05;17.30;58.70
5520;DHT22;2782;52.362;10.012;2023-02-28T06:44:12;17.30;58.80
5520;DHT22;2782;52.362;10.012;2023-02-28T06:45:14;17.30;58.70
5520;DHT22;2782;52.362;10.012;2023-02-28T06:46:16;17.30;57.50
5520;DHT22;2782;52.362;10.012;2023-02-28T06:47:17;17.30;57.70
5520;DHT22;2782;52.362;10.012;2023-02-28T06:48:18;17.30;58.10
5520;DHT22;2782;52.362;10.012;2023-02-28T06:49:19;17.30;58.60
5520;DHT22;2782;52.362;10.012;2023-02-28T06:50:21;17.30;58.60
5520;DHT22;2782;52.362;10.012;2023-02-28T06:51:22;17.40;58.50
5520;DHT22;2782;52.362;10.012;2023-02-28T06:52:24;17.50;58.40
5520;DHT22;2782;52.362;10.012;2023-02-28T06:53:26;17.50;58.00
5520;DHT22;2782;52.362;10.012;2023-02-28T06:54:27;17.60;58.00
5520;DHT22;2782;52.362;10.012;2023-02-28T06:55:28;17.60;57.90
5520;DHT22;2782;52.362;10.012;2023-02-28T06:56:29;17.60;57.80